Time;durP1;ratioP1;P1;durP2;ratioP2;P2;SDS_P1;SDS_P2;PMS_P1;PMS_P2;Temp;Humidity;BMP_temperature;BMP_pressure;BME280_temperature;BME280_humidity;BME280_pressure;Samples;Min_cycle;Max_cycle;Signal;HPM_P1;HPM_P2
2023/10/10 06:06:43;;;;;;;;;;;;;;;18.53;62.14;97544.44;4236130;27;10340;-66
2023/10/10 06:08:46;;;;;;;;;;;;;;;18.81;61.89;97540.41;4244778;27;5598;-67
2023/10/10 06:10:50;;;;;;;;;;;;;;;19.03;61.46;97543.41;4234506;27;5816;-67
2023/10/10 06:12:53;;;;;;;;;;;;;;;19.20;61.21;97544.34;4237105;27;5706;-68
2023/10/10 06:14:56;;;;;;;;;;;;;;;19.37;60.78;97549.88;4241976;27;5617;-67
2023/10/10 06:16:59;;;;;;;;;;;;;;;19.48;60.34;97549.91;4246790;27;5759;-67
2023/10/10 06:19:02;;;;;;;;;;;;;;;19.59;60.26;97550.97;4242822;27;5821;-67
2023/10/10 06:21:07;;;;;;;;;;;;;;;19.66;60.01;97537.47;4242472;27;5633;-68
2023/10/10 06:23:15;;;;;;;;;;;;;;;19.77;59.55;97542.00;4243230;27;5665;-67
2023/10/10 06:25:18;;;;;;;;;;;;;;;19.83;59.33;97546.47;4245086;27;5637;-67
2023/10/10 06:27:21;;;;;;;;;;;;;;;19.88;59.19;97548.44;4246957;27;5582;-67
2023/10/10 06:29:48;;;;;;;;;;;;;;;19.94;59.04;97552.88;4237049;27;5669;-68
2023/10/10 06:32:15;;;;;;;;;;;;;;;19.98;58.98;97554.84;4247476;27;5811;-67
2023/10/10 06:34:38;;;;;;;;;;;;;;;20.02;58.58;97552.50;4242492;27;5645;-67
2023/10/10 06:37:07;;;;;;;;;;;;;;;20.08;58.55;97553.44;4242699;27;5835;-67
2023/10/10 06:39:33;;;;;;;;;;;;;;;20.12;58.54;97559.97;4247434;27;5741;-67
2023/10/10 06:41:57;;;;;;;;;;;;;;;20.15;58.19;97562.16;4245149;27;5582;-67
2023/10/10 06:44:31;;;;;;;;;;;;;;;20.16;58.05;97556.59;4242044;27;5780;-67
2023/10/10 06:46:55;;;;;;;;;;;;;;;20.19;57.78;97558.78;4231272;28;5825;-68
2023/10/10 06:49:20;;;;;;;;;;;;;;;20.23;57.95;97567.19;4238105;27;6305;-67
2023/10/10 06:51:43;;;;;;;;;;;;;;;20.25;57.77;97573.13;4248127;27;5665;-67
2023/10/10 06:54:08;;;;;;;;;;;;;;;20.27;57.53;97563.81;4248274;27;6295;-66
2023/10/10 06:56:45;;;;;;;;;;;;;;;20.29;57.43;97572.44;4240509;27;5088;-66
2023/10/10 06:59:09;;;;;;;;;;;;;;;20.32;57.44;97576.50;4242791;27;5685;-67
2023/10/10 07:01:31;;;;;;;;;;;;;;;20.34;57.40;97574.41;4231343;27;5851;-66
2023/10/10 07:03:55;;;;;;;;;;;;;;;20.36;57.45;97583.84;4245651;27;5593;-67
2023/10/10 07:06:20;;;;;;;;;;;;;;;20.35;57.43;97576.84;4243959;27;5601;-67
2023/10/10 07:08:42;;;;;;;;;;;;;;;20.41;57.02;97580.47;4224044;28;5680;-67
2023/10/10 07:11:04;;;;;;;;;;;;;;;20.43;57.53;97582.94;4232718;28;5680;-67
2023/10/10 07:13:30;;;;;;;;;;;;;;;20.44;57.35;97569.28;4234364;28;6318;-67
2023/10/10 07:15:52;;;;;;;;;;;;;;;20.46;57.07;97567.16;4235575;28;6397;-67
2023/10/10 07:18:22;;;;;;;;;;;;;;;20.47;57.17;97565.28;4234120;28;5609;-68
2023/10/10 07:21:08;;;;;;;;;;;;;;;20.51;56.87;97577.22;4233501;27;5621;-67
2023/10/10 07:23:37;;;;;;;;;;;;;;;20.53;56.72;97569.72;4234752;28;5586;-67
2023/10/10 07:26:00;;;;;;;;;;;;;;;20.53;56.76;97573.22;4218923;28;5712;-67
2023/10/10 07:28:25;;;;;;;;;;;;;;;20.55;56.85;97571.13;4223769;28;5666;-67
2023/10/10 07:30:50;;;;;;;;;;;;;;;20.56;56.97;97567.38;4232809;28;5713;-67
2023/10/10 07:33:13;;;;;;;;;;;;;;;20.58;56.94;97576.00;4219558;28;5609;-67
2023/10/10 07:35:36;;;;;;;;;;;;;;;20.60;56.57;97573.09;4219169;28;5593;-67
2023/10/10 07:37:58;;;;;;;;;;;;;;;20.60;56.48;97571.22;4234358;28;5617;-67
2023/10/10 07:40:20;;;;;;;;;;;;;;;20.62;56.48;97577.19;4235739;28;5602;-67
2023/10/10 07:42:42;;;;;;;;;;;;;;;20.63;56.61;97565.38;4234999;28;6290;-67
2023/10/10 07:45:13;;;;;;;;;;;;;;;20.66;56.35;97574.81;4235149;28;5752;-67
2023/10/10 07:48:37;;;;;;;;;;;;;;;20.67;56.47;97573.78;4224589;28;5567;-68
2023/10/10 07:50:18;;;;;;;;;;;;;;;20.70;56.17;97578.66;4231940;28;5606;-68
2023/10/10 07:52:40;;;;;;;;;;;;;;;20.72;56.62;97573.03;4234791;28;5614;-67
2023/10/10 07:55:04;;;;;;;;;;;;;;;20.74;56.30;97576.34;4238746;27;5563;-67
2023/10/10 07:57:28;;;;;;;;;;;;;;;20.76;56.24;97572.34;4241702;27;5696;-66
2023/10/10 07:59:54;;;;;;;;;;;;;;;20.78;56.49;97578.28;4221138;28;5826;-67
2023/10/10 08:02:25;;;;;;;;;;;;;;;20.81;56.84;97583.19;4228768;28;5766;-67
2023/10/10 08:04:50;;;;;;;;;;;;;;;20.82;56.67;97584.81;4235066;28;5657;-66
2023/10/10 08:07:18;;;;;;;;;;;;;;;20.84;56.62;97589.97;4233276;28;5740;-67
2023/10/10 08:09:40;;;;;;;;;;;;;;;20.85;56.67;97587.03;4233094;28;5661;-67
2023/10/10 08:12:04;;;;;;;;;;;;;;;20.86;57.10;97593.22;4234322;28;5587;-66
2023/10/10 08:14:30;;;;;;;;;;;;;;;20.83;55.98;97586.44;4235237;28;5602;-63
2023/10/10 08:16:59;;;;;;;;;;;;;;;20.82;56.10;97592.06;4233592;28;5574;-63
2023/10/10 08:19:33;;;;;;;;;;;;;;;20.79;56.31;97593.34;4236228;27;5759;-63
2023/10/10 08:21:56;;;;;;;;;;;;;;;20.82;56.25;97592.06;4235221;27;5646;-63
2023/10/10 08:24:19;;;;;;;;;;;;;;;20.84;56.66;97603.41;4226611;27;5799;-68
2023/10/10 08:26:44;;;;;;;;;;;;;;;20.84;56.26;97596.16;4218925;28;5658;-73
2023/10/10 08:29:07;;;;;;;;;;;;;;;20.86;56.08;97595.91;4231983;28;5685;-71
2023/10/10 08:31:29;;;;;;;;;;;;;;;20.87;56.36;97590.31;4233861;28;5748;-66
2023/10/10 08:33:51;;;;;;;;;;;;;;;20.90;56.18;97595.19;4229647;28;6031;-74
2023/10/10 08:36:23;;;;;;;;;;;;;;;20.91;56.43;97588.75;4231039;28;5598;-72
2023/10/10 08:38:45;;;;;;;;;;;;;;;20.92;56.13;97590.38;4227740;28;5732;-66
2023/10/10 08:41:08;;;;;;;;;;;;;;;20.96;56.29;97587.25;4229818;28;5768;-72
2023/10/10 08:43:32;;;;;;;;;;;;;;;20.96;56.28;97585.38;4230225;28;5649;-72
2023/10/10 08:45:56;;;;;;;;;;;;;;;20.97;56.32;97586.19;4223813;28;5582;-66
2023/10/10 08:48:26;;;;;;;;;;;;;;;20.99;56.43;97584.06;4230764;28;5579;-67
2023/10/10 08:50:48;;;;;;;;;;;;;;;21.00;55.95;97578.44;4221038;28;5733;-74
2023/10/10 08:53:12;;;;;;;;;;;;;;;21.00;56.14;97574.94;4220771;28;5831;-65
2023/10/10 08:55:38;;;;;;;;;;;;;;;21.01;55.88;97574.69;4230612;28;5079;-71
2023/10/10 08:58:00;;;;;;;;;;;;;;;21.03;55.85;97580.63;4230323;28;5818;-70
2023/10/10 09:00:26;;;;;;;;;;;;;;;21.03;55.90;97572.56;4232623;28;5794;-66
2023/10/10 09:02:49;;;;;;;;;;;;;;;21.07;55.72;97571.06;4232805;28;5590;-73
2023/10/10 09:05:14;;;;;;;;;;;;;;;21.10;55.88;97561.69;4229827;28;5130;-70
2023/10/10 09:07:39;;;;;;;;;;;;;;;21.11;55.41;97571.38;4231832;28;5616;-69
2023/10/10 09:10:05;;;;;;;;;;;;;;;21.13;55.74;97566.56;4232017;28;5598;-68
2023/10/10 09:12:28;;;;;;;;;;;;;;;21.15;55.26;97575.22;4229679;27;5651;-69
2023/10/10 09:14:50;;;;;;;;;;;;;;;21.16;55.14;97574.16;4233730;28;7703;-72
2023/10/10 09:17:28;;;;;;;;;;;;;;;21.16;54.88;97571.47;4231219;28;5594;-73
2023/10/10 09:19:50;;;;;;;;;;;;;;;21.21;54.75;97571.56;4229812;28;5718;-76
2023/10/10 09:22:25;;;;;;;;;;;;;;;21.21;54.37;97568.88;4226371;28;5665;-75
2023/10/10 09:24:49;;;;;;;;;;;;;;;21.21;54.04;97568.88;4221756;28;5696;-74
2023/10/10 09:27:22;;;;;;;;;;;;;;;21.23;53.71;97572.94;4231718;27;5598;-76
2023/10/10 09:29:49;;;;;;;;;;;;;;;21.24;53.42;97568.38;4231455;28;5566;-70
2023/10/10 09:32:14;;;;;;;;;;;;;;;21.26;53.37;97574.38;4231143;28;5653;-74
2023/10/10 09:34:40;;;;;;;;;;;;;;;21.27;53.75;97567.94;4231870;28;5685;-72
2023/10/10 09:37:07;;;;;;;;;;;;;;;21.28;53.36;97563.38;4224888;28;5660;-74
2023/10/10 09:39:36;;;;;;;;;;;;;;;21.29;53.46;97565.81;4231892;28;5696;-73
2023/10/10 09:42:09;;;;;;;;;;;;;;;21.31;53.63;97558.34;4233070;28;5784;-70
2023/10/10 09:44:53;;;;;;;;;;;;;;;21.33;53.19;97564.28;4233117;28;5589;-75
2023/10/10 09:47:36;;;;;;;;;;;;;;;21.34;53.42;97557.84;4231892;28;5733;-70
2023/10/10 09:50:29;;;;;;;;;;;;;;;21.38;52.99;97561.66;4228978;28;5764;-72
2023/10/10 09:52:50;;;;;;;;;;;;;;;21.39;53.19;97557.91;4233343;28;5817;-73
2023/10/10 09:55:39;;;;;;;;;;;;;;;21.39;52.87;97565.16;4232724;28;5594;-68
2023/10/10 09:58:08;;;;;;;;;;;;;;;21.42;52.96;97559.31;4230236;28;5665;-69
2023/10/10 10:00:35;;;;;;;;;;;;;;;21.42;52.57;97562.81;4233169;28;5574;-75
2023/10/10 10:03:24;;;;;;;;;;;;;;;21.42;52.59;97554.75;4233032;28;5661;-73
2023/10/10 10:05:57;;;;;;;;;;;;;;;21.43;52.56;97550.19;4229044;28;5658;-69
2023/10/10 10:08:32;;;;;;;;;;;;;;;21.45;52.57;97558.81;4232090;28;5099;-72
2023/10/10 10:10:59;;;;;;;;;;;;;;;21.47;52.09;97562.09;4230669;28;5649;-72
2023/10/10 10:13:40;;;;;;;;;;;;;;;21.50;52.35;97557.03;4232577;28;5590;-68
2023/10/10 10:16:19;;;;;;;;;;;;;;;21.54;52.24;97551.19;4228988;28;5681;-72
2023/10/10 10:18:47;;;;;;;;;;;;;;;21.55;52.04;97552.81;4230071;28;5681;-70
2023/10/10 10:21:18;;;;;;;;;;;;;;;21.55;51.91;97544.72;4231151;28;5285;-71
2023/10/10 10:23:45;;;;;;;;;;;;;;;21.58;51.93;97544.22;4233080;28;5594;-66
2023/10/10 10:26:10;;;;;;;;;;;;;;;21.58;51.97;97545.06;4232512;28;5696;-72
2023/10/10 10:28:36;;;;;;;;;;;;;;;21.58;51.66;97546.94;4233004;28;5701;-75
2023/10/10 10:31:05;;;;;;;;;;;;;;;21.59;51.92;97548.56;4232856;28;5805;-74
2023/10/10 10:33:27;;;;;;;;;;;;;;;21.60;51.70;97539.41;4233201;28;5578;-71
2023/10/10 10:36:14;;;;;;;;;;;;;;;21.60;51.17;97547.50;4232777;28;5634;-72
2023/10/10 10:38:39;;;;;;;;;;;;;;;21.61;51.04;97541.84;4228893;28;5582;-68
2023/10/10 10:41:07;;;;;;;;;;;;;;;21.63;51.27;97541.59;4231607;28;5728;-71
2023/10/10 10:43:38;;;;;;;;;;;;;;;21.63;50.98;97545.16;4236010;28;5692;-66
2023/10/10 10:46:12;;;;;;;;;;;;;;;21.64;50.80;97552.16;4231975;28;5598;-72
2023/10/10 10:48:36;;;;;;;;;;;;;;;21.66;50.92;97551.91;4224712;27;5834;-72
2023/10/10 10:51:03;;;;;;;;;;;;;;;21.67;51.12;97534.69;4224054;27;5680;-76
2023/10/10 10:53:38;;;;;;;;;;;;;;;21.68;50.94;97531.75;4230422;27;5677;-67
2023/10/10 10:56:37;;;;;;;;;;;;;;;21.70;51.08;97540.41;4229985;27;5602;-66
2023/10/10 10:59:11;;;;;;;;;;;;;;;21.73;51.35;97531.00;4227308;27;5669;-68
2023/10/10 11:01:36;;;;;;;;;;;;;;;21.73;51.21;97533.69;4235085;28;5581;-69
2023/10/10 11:03:57;;;;;;;;;;;;;;;21.73;50.91;97528.31;4242261;27;5575;-66
2023/10/10 11:06:20;;;;;;;;;;;;;;;21.72;51.26;97524.00;4243598;27;5840;-72
2023/10/10 11:08:53;;;;;;;;;;;;;;;21.74;51.10;97519.19;4232070;27;5666;-71
2023/10/10 11:11:27;;;;;;;;;;;;;;;21.75;50.80;97518.97;4232734;27;5486;-65
2023/10/10 11:13:49;;;;;;;;;;;;;;;21.76;51.13;97522.47;4236619;27;5687;-65
2023/10/10 11:16:11;;;;;;;;;;;;;;;21.80;50.87;97518.19;4238310;27;5878;-73
2023/10/10 11:18:34;;;;;;;;;;;;;;;21.80;50.94;97505.56;4231682;27;5681;-76
2023/10/10 11:20:59;;;;;;;;;;;;;;;21.82;51.14;97509.88;4222962;27;6504;-68
2023/10/10 11:23:20;;;;;;;;;;;;;;;21.85;50.97;97501.31;4219953;27;5677;-75
2023/10/10 11:25:46;;;;;;;;;;;;;;;21.85;50.93;97502.13;4233690;27;5125;-76
2023/10/10 11:28:21;;;;;;;;;;;;;;;21.86;51.17;97494.84;4234889;27;5828;-75
2023/10/10 11:30:45;;;;;;;;;;;;;;;21.87;51.12;97491.13;4227335;27;5788;-73
2023/10/10 11:33:17;;;;;;;;;;;;;;;21.86;51.08;97479.53;4231646;27;5670;-76
2023/10/10 11:35:41;;;;;;;;;;;;;;;21.89;50.62;97484.44;4239543;27;5587;-69
2023/10/10 11:38:08;;;;;;;;;;;;;;;21.90;50.89;97480.66;4233579;27;5649;-70
2023/10/10 11:40:34;;;;;;;;;;;;;;;21.90;50.76;97477.97;4232692;27;5506;-68
2023/10/10 11:42:59;;;;;;;;;;;;;;;21.91;50.71;97487.69;4235603;27;6248;-70
2023/10/10 11:45:25;;;;;;;;;;;;;;;21.91;50.45;97476.91;4230630;27;5579;-68
2023/10/10 11:47:48;;;;;;;;;;;;;;;21.92;50.65;97473.16;4231866;27;5760;-69
2023/10/10 11:50:12;;;;;;;;;;;;;;;21.94;50.37;97478.28;4222018;27;5583;-70
2023/10/10 11:52:34;;;;;;;;;;;;;;;21.95;50.06;97464.56;4226966;27;5583;-75
2023/10/10 11:54:58;;;;;;;;;;;;;;;21.95;50.16;97463.75;4229504;27;5070;-65
2023/10/10 11:57:20;;;;;;;;;;;;;;;21.99;50.17;97457.66;4233710;27;5567;-64
2023/10/10 11:59:46;;;;;;;;;;;;;;;22.02;50.20;97461.72;4223254;27;5577;-64
2023/10/10 12:02:13;;;;;;;;;;;;;;;22.03;50.20;97452.56;4230299;27;5920;-66
2023/10/10 12:04:38;;;;;;;;;;;;;;;22.04;49.93;97449.63;4228964;27;7676;-65
2023/10/10 12:07:00;;;;;;;;;;;;;;;22.05;50.01;97451.25;4193792;28;5966;-67
2023/10/10 12:09:27;;;;;;;;;;;;;;;22.06;49.95;97444.81;4193213;28;6166;-65
2023/10/10 12:11:50;;;;;;;;;;;;;;;22.08;49.75;97445.41;4194358;28;5640;-67
2023/10/10 12:14:18;;;;;;;;;;;;;;;22.10;49.78;97441.66;4197830;28;5872;-66
2023/10/10 12:16:42;;;;;;;;;;;;;;;22.10;49.98;97441.66;4200578;28;5636;-67
2023/10/10 12:19:05;;;;;;;;;;;;;;;22.08;49.57;97431.94;4201518;28;5847;-65
2023/10/10 12:21:30;;;;;;;;;;;;;;;22.08;49.41;97429.25;4199406;28;5701;-65
2023/10/10 12:23:54;;;;;;;;;;;;;;;22.11;49.50;97424.44;4197255;28;5637;-65
2023/10/10 12:26:22;;;;;;;;;;;;;;;22.12;49.54;97423.38;4200731;28;5665;-63
2023/10/10 12:28:47;;;;;;;;;;;;;;;22.13;49.21;97427.69;4192951;28;5753;-64
2023/10/10 12:31:15;;;;;;;;;;;;;;;22.13;49.19;97423.09;4201479;28;5732;-65
2023/10/10 12:33:39;;;;;;;;;;;;;;;22.15;49.47;97420.16;4197770;28;5851;-64
2023/10/10 12:36:07;;;;;;;;;;;;;;;22.15;48.94;97412.91;4185205;28;5654;-64
2023/10/10 12:38:32;;;;;;;;;;;;;;;22.18;49.01;97416.94;4198211;28;6488;-64
2023/10/10 12:40:56;;;;;;;;;;;;;;;22.18;48.78;97414.25;4186842;28;5079;-64
2023/10/10 12:43:18;;;;;;;;;;;;;;;22.18;48.94;97411.56;4200497;28;5752;-65
2023/10/10 12:45:40;;;;;;;;;;;;;;;22.21;48.53;97405.69;4193157;28;5646;-64
2023/10/10 12:48:02;;;;;;;;;;;;;;;22.21;48.42;97408.41;4201270;28;5743;-66
2023/10/10 12:50:28;;;;;;;;;;;;;;;22.22;48.23;97397.38;4200729;28;5873;-65
2023/10/10 12:53:01;;;;;;;;;;;;;;;22.23;48.26;97404.38;4192927;28;5736;-65
2023/10/10 12:55:25;;;;;;;;;;;;;;;22.24;48.45;97400.63;4188074;28;5720;-64
2023/10/10 12:57:48;;;;;;;;;;;;;;;22.26;47.88;97392.28;4193578;28;5656;-64
2023/10/10 13:00:33;;;;;;;;;;;;;;;22.26;48.47;97398.47;4192739;28;5665;-64
2023/10/10 13:02:55;;;;;;;;;;;;;;;22.28;48.00;97395.53;4193047;28;5770;-63
2023/10/10 13:05:17;;;;;;;;;;;;;;;22.32;48.18;97393.97;4202204;28;5717;-63
2023/10/10 13:07:41;;;;;;;;;;;;;;;22.32;48.23;97392.09;4234381;28;5605;-64
2023/10/10 13:10:10;;;;;;;;;;;;;;;22.33;47.92;97388.31;4234146;28;5598;-64
2023/10/10 13:12:33;;;;;;;;;;;;;;;22.35;48.26;97386.19;4233936;28;5661;-64
2023/10/10 13:15:16;;;;;;;;;;;;;;;22.37;47.83;97383.25;4234073;28;5728;-64
2023/10/10 13:17:50;;;;;;;;;;;;;;;22.40;48.17;97384.59;4221792;28;5586;-64
2023/10/10 13:20:12;;;;;;;;;;;;;;;22.39;47.87;97383.78;4233781;28;5714;-63
2023/10/10 13:22:33;;;;;;;;;;;;;;;22.38;47.88;97374.91;4226630;28;5657;-64
2023/10/10 13:24:56;;;;;;;;;;;;;;;22.37;47.37;97375.16;4228326;28;5677;-64
2023/10/10 13:27:20;;;;;;;;;;;;;;;22.36;47.63;97384.31;4233753;28;5685;-63
2023/10/10 13:29:42;;;;;;;;;;;;;;;22.35;47.04;97371.91;4233754;28;5642;-64
2023/10/10 13:32:05;;;;;;;;;;;;;;;22.38;47.04;97376.78;4233924;28;5590;-64
2023/10/10 13:34:27;;;;;;;;;;;;;;;22.40;46.93;97381.91;4234470;28;5698;-64
2023/10/10 13:36:48;;;;;;;;;;;;;;;22.40;47.12;97380.03;4225533;28;5586;-64
2023/10/10 13:39:15;;;;;;;;;;;;;;;22.40;47.11;97380.03;4231928;28;5713;-64
2023/10/10 13:41:39;;;;;;;;;;;;;;;22.40;46.64;97377.34;4233650;28;5594;-63
2023/10/10 13:44:00;;;;;;;;;;;;;;;22.38;47.05;97376.78;4228802;28;5613;-63
2023/10/10 13:46:26;;;;;;;;;;;;;;;22.38;47.06;97369.50;4234070;28;5593;-63
2023/10/10 13:48:48;;;;;;;;;;;;;;;22.37;46.65;97364.38;4218513;28;5657;-63
2023/10/10 13:51:13;;;;;;;;;;;;;;;22.38;46.53;97368.69;4234047;28;5104;-64
2023/10/10 13:53:39;;;;;;;;;;;;;;;22.39;46.73;97378.41;4231445;28;5739;-63
2023/10/10 13:56:03;;;;;;;;;;;;;;;22.38;46.47;97369.50;4230198;28;5590;-64
2023/10/10 13:58:26;;;;;;;;;;;;;;;22.38;46.69;97368.69;4222735;28;5719;-63
2023/10/10 14:01:10;;;;;;;;;;;;;;;22.40;46.90;97371.13;4226175;28;7395;-64
2023/10/10 14:03:35;;;;;;;;;;;;;;;22.39;46.60;97370.31;4230196;28;5742;-63
2023/10/10 14:06:10;;;;;;;;;;;;;;;22.40;46.63;97366.56;4231843;28;5590;-63
2023/10/10 14:08:31;;;;;;;;;;;;;;;22.42;46.65;97366.31;4230787;28;5659;-64
2023/10/10 14:10:54;;;;;;;;;;;;;;;22.39;46.81;97359.53;4225935;28;5578;-64
2023/10/10 14:13:21;;;;;;;;;;;;;;;22.43;46.73;97363.38;4227722;28;5657;-64
2023/10/10 14:15:54;;;;;;;;;;;;;;;22.44;46.53;97361.50;4230948;28;5622;-64
2023/10/10 14:18:16;;;;;;;;;;;;;;;22.43;46.35;97360.69;4236422;28;5678;-64
2023/10/10 14:20:38;;;;;;;;;;;;;;;22.42;46.50;97361.72;4235667;28;5598;-63
2023/10/10 14:22:59;;;;;;;;;;;;;;;22.43;46.50;97352.59;4222150;28;5601;-64
2023/10/10 14:25:23;;;;;;;;;;;;;;;22.45;46.46;97355.84;4235869;28;5681;-64
2023/10/10 14:27:45;;;;;;;;;;;;;;;22.47;46.54;97359.09;4233237;28;6701;-64
2023/10/10 14:30:20;;;;;;;;;;;;;;;22.46;46.39;97354.78;4231139;28;5586;-64
2023/10/10 14:32:43;;;;;;;;;;;;;;;22.45;46.68;97353.16;4235678;28;5582;-64
2023/10/10 14:35:06;;;;;;;;;;;;;;;22.45;46.26;97352.34;4227503;28;5731;-64
2023/10/10 14:37:29;;;;;;;;;;;;;;;22.42;46.29;97348.25;4235910;28;5597;-64
2023/10/10 14:40:11;;;;;;;;;;;;;;;22.44;46.56;97348.03;4229988;28;5833;-65
2023/10/10 14:42:33;;;;;;;;;;;;;;;22.44;46.10;97350.72;4234373;28;6298;-64
2023/10/10 14:44:55;;;;;;;;;;;;;;;22.46;46.19;97354.78;4224719;28;5605;-65
2023/10/10 14:47:20;;;;;;;;;;;;;;;22.47;46.53;97348.31;4230453;28;5892;-65
2023/10/10 14:49:43;;;;;;;;;;;;;;;22.48;46.71;97346.44;4235215;28;5586;-64
2023/10/10 14:52:06;;;;;;;;;;;;;;;22.49;46.65;97356.94;4222207;28;5590;-63
2023/10/10 14:54:28;;;;;;;;;;;;;;;22.48;46.43;97344.56;4233573;28;5696;-64
2023/10/10 14:56:50;;;;;;;;;;;;;;;22.49;46.33;97348.88;4228243;28;5748;-64
2023/10/10 14:59:17;;;;;;;;;;;;;;;22.48;46.37;97347.25;4235297;28;5575;-64
2023/10/10 15:01:39;;;;;;;;;;;;;;;22.49;46.06;97342.66;4234997;28;5598;-64
2023/10/10 15:04:04;;;;;;;;;;;;;;;22.48;46.20;97341.84;4229573;28;5602;-64
2023/10/10 15:06:28;;;;;;;;;;;;;;;22.50;46.35;97347.00;4228486;28;5641;-64
2023/10/10 15:08:50;;;;;;;;;;;;;;;22.50;45.91;97339.72;4228685;28;5668;-64
2023/10/10 15:11:12;;;;;;;;;;;;;;;22.50;46.21;97345.09;4229602;28;5823;-65
2023/10/10 15:13:35;;;;;;;;;;;;;;;22.52;46.19;97342.16;4226986;28;5613;-64
2023/10/10 15:15:56;;;;;;;;;;;;;;;22.52;46.11;97348.34;4226352;28;5577;-64
2023/10/10 15:18:19;;;;;;;;;;;;;;;22.51;46.04;97345.91;4218786;28;5692;-63
2023/10/10 15:20:46;;;;;;;;;;;;;;;22.52;45.95;97339.47;4218023;28;5597;-63
2023/10/10 15:23:10;;;;;;;;;;;;;;;22.51;45.91;97335.94;4228008;28;5586;-64
2023/10/10 15:25:31;;;;;;;;;;;;;;;22.51;45.50;97337.84;4231966;28;5100;-64
2023/10/10 15:27:54;;;;;;;;;;;;;;;22.53;45.57;97343.78;4223268;28;5824;-64
2023/10/10 15:30:16;;;;;;;;;;;;;;;22.52;45.41;97342.97;4235019;28;5685;-64
2023/10/10 15:32:46;;;;;;;;;;;;;;;22.53;45.42;97338.38;4234562;28;5602;-65
2023/10/10 15:35:09;;;;;;;;;;;;;;;22.52;45.17;97336.75;4230722;28;5661;-65
2023/10/10 15:37:31;;;;;;;;;;;;;;;22.53;45.28;97335.69;4230438;27;5661;-64
2023/10/10 15:39:57;;;;;;;;;;;;;;;22.53;45.51;97328.41;4233556;28;5669;-65
2023/10/10 15:42:19;;;;;;;;;;;;;;;22.52;45.19;97329.50;4234127;28;5872;-64
2023/10/10 15:44:41;;;;;;;;;;;;;;;22.54;45.34;97334.66;4226267;28;5676;-64
2023/10/10 15:47:03;;;;;;;;;;;;;;;22.54;44.88;97334.66;4234238;28;5697;-64
2023/10/10 15:49:25;;;;;;;;;;;;;;;22.55;45.20;97339.78;4234854;28;5688;-64
2023/10/10 15:52:03;;;;;;;;;;;;;;;22.54;45.09;97340.84;4224211;28;5585;-64
2023/10/10 15:54:29;;;;;;;;;;;;;;;22.54;45.30;97340.84;4222531;28;5620;-64
2023/10/10 15:56:52;;;;;;;;;;;;;;;22.56;45.29;97344.09;4230447;28;5585;-64
2023/10/10 15:59:14;;;;;;;;;;;;;;;22.58;45.72;97338.44;4234686;28;5590;-64
2023/10/10 16:01:37;;;;;;;;;;;;;;;22.59;45.42;97346.28;4226054;28;5681;-64
2023/10/10 16:04:05;;;;;;;;;;;;;;;22.58;45.78;97343.84;4233557;28;5823;-65
2023/10/10 16:06:28;;;;;;;;;;;;;;;22.57;45.66;97334.94;4233504;28;5593;-64
2023/10/10 16:08:51;;;;;;;;;;;;;;;22.57;45.91;97332.25;4229330;28;5806;-64
2023/10/10 16:11:13;;;;;;;;;;;;;;;22.58;45.77;97328.47;4228876;28;5585;-65
2023/10/10 16:13:36;;;;;;;;;;;;;;;22.59;45.95;97334.69;4233500;28;5718;-64
2023/10/10 16:15:58;;;;;;;;;;;;;;;22.58;46.54;97327.66;4225104;28;5804;-64
2023/10/10 16:18:19;;;;;;;;;;;;;;;22.57;46.08;97344.91;4224357;28;5717;-64
2023/10/10 16:20:41;;;;;;;;;;;;;;;22.55;46.29;97336.28;4227582;28;5797;-64
2023/10/10 16:23:03;;;;;;;;;;;;;;;22.54;46.19;97335.47;4217868;28;5094;-64
2023/10/10 16:25:24;;;;;;;;;;;;;;;22.55;46.91;97331.69;4232369;28;5237;-64
2023/10/10 16:27:45;;;;;;;;;;;;;;;22.54;46.62;97334.66;4227600;28;5582;-64
2023/10/10 16:30:10;;;;;;;;;;;;;;;22.53;47.01;97328.41;4230666;28;5589;-64
2023/10/10 16:32:35;;;;;;;;;;;;;;;22.53;47.33;97333.81;4232612;28;5610;-64
2023/10/10 16:34:56;;;;;;;;;;;;;;;22.53;47.18;97328.41;4231114;28;5582;-64
2023/10/10 16:37:20;;;;;;;;;;;;;;;22.54;47.54;97330.06;4224196;28;5109;-64
2023/10/10 16:39:44;;;;;;;;;;;;;;;22.53;47.98;97325.72;4220166;28;6303;-64
2023/10/10 16:42:06;;;;;;;;;;;;;;;22.53;48.00;97320.34;4231880;28;5590;-63
2023/10/10 16:44:27;;;;;;;;;;;;;;;22.53;48.39;97339.19;4233644;28;5798;-64
2023/10/10 16:46:52;;;;;;;;;;;;;;;22.52;48.53;97337.56;4234764;28;5681;-64
2023/10/10 16:49:14;;;;;;;;;;;;;;;22.49;48.26;97332.69;4234938;28;5688;-64
2023/10/10 16:51:36;;;;;;;;;;;;;;;22.49;48.62;97348.88;4234741;28;5601;-64
2023/10/10 16:53:57;;;;;;;;;;;;;;;22.48;49.13;97344.56;4234973;28;5831;-65
2023/10/10 16:56:21;;;;;;;;;;;;;;;22.46;48.83;97345.88;4231785;28;5655;-64
2023/10/10 16:58:44;;;;;;;;;;;;;;;22.46;49.05;97345.88;4224141;28;5636;-64
2023/10/10 17:01:12;;;;;;;;;;;;;;;22.44;49.28;97340.75;4234717;28;5594;-65
2023/10/10 17:03:34;;;;;;;;;;;;;;;22.43;49.52;97349.09;4234952;28;5677;-65
2023/10/10 17:05:57;;;;;;;;;;;;;;;22.42;49.91;97348.25;4228031;28;5692;-65
2023/10/10 17:08:19;;;;;;;;;;;;;;;22.40;50.02;97345.00;4234925;28;5590;-64
2023/10/10 17:10:40;;;;;;;;;;;;;;;22.38;49.73;97347.97;4234364;28;5858;-64
2023/10/10 17:13:02;;;;;;;;;;;;;;;22.38;49.97;97347.97;4220881;28;5582;-64
2023/10/10 17:15:23;;;;;;;;;;;;;;;22.37;50.42;97354.41;4234436;28;5590;-64
2023/10/10 17:17:45;;;;;;;;;;;;;;;22.36;50.55;97354.69;4234848;28;5589;-64
2023/10/10 17:20:15;;;;;;;;;;;;;;;22.35;50.91;97353.06;4233130;28;5643;-64
2023/10/10 17:22:37;;;;;;;;;;;;;;;22.34;50.60;97346.03;4223238;28;5582;-64
2023/10/10 17:24:58;;;;;;;;;;;;;;;22.33;51.12;97355.19;4221816;28;8274;-64
2023/10/10 17:27:19;;;;;;;;;;;;;;;22.31;51.05;97357.31;4219617;28;5841;-64
2023/10/10 17:29:40;;;;;;;;;;;;;;;22.30;51.04;97353.78;4234659;28;5088;-63
2023/10/10 17:32:02;;;;;;;;;;;;;;;22.30;51.42;97361.06;4228408;28;5731;-64
2023/10/10 17:34:31;;;;;;;;;;;;;;;22.27;51.44;97354.31;4230937;28;5681;-63
2023/10/10 17:36:57;;;;;;;;;;;;;;;22.28;51.19;97366.72;4227719;28;5593;-63
2023/10/10 17:39:19;;;;;;;;;;;;;;;22.27;51.52;97375.03;4225446;28;5601;-63
2023/10/10 17:41:42;;;;;;;;;;;;;;;22.26;51.35;97359.97;4224467;28;5601;-64
2023/10/10 17:44:08;;;;;;;;;;;;;;;22.25;52.07;97363.72;4227448;28;5100;-63
2023/10/10 17:46:31;;;;;;;;;;;;;;;22.25;51.88;97366.41;4234438;27;5792;-64
2023/10/10 17:48:54;;;;;;;;;;;;;;;22.23;52.18;97363.97;4222264;28;5609;-63
2023/10/10 17:51:16;;;;;;;;;;;;;;;22.24;52.14;97378.25;4228439;28;5693;-64
2023/10/10 17:53:40;;;;;;;;;;;;;;;22.22;52.06;97370.44;4233566;28;5661;-63
2023/10/10 17:56:04;;;;;;;;;;;;;;;22.21;52.17;97373.38;4229105;28;5681;-64
2023/10/10 17:58:26;;;;;;;;;;;;;;;22.21;52.14;97370.69;4223453;28;5581;-63
2023/10/10 18:00:52;;;;;;;;;;;;;;;22.19;52.55;97372.78;4220499;28;5609;-63
2023/10/10 18:03:14;;;;;;;;;;;;;;;22.18;52.21;97373.88;4226523;28;5724;-63
2023/10/10 18:05:37;;;;;;;;;;;;;;;22.16;52.17;97370.63;4219146;28;5719;-64
2023/10/10 18:07:59;;;;;;;;;;;;;;;22.15;52.26;97377.88;4220797;27;5831;-69
2023/10/10 18:10:23;;;;;;;;;;;;;;;22.12;52.19;97375.72;4220685;28;5608;-68
2023/10/10 18:12:44;;;;;;;;;;;;;;;22.10;51.99;97371.66;4224285;27;5672;-73
2023/10/10 18:15:10;;;;;;;;;;;;;;;22.08;51.61;97370.03;4228705;28;6394;-68
2023/10/10 18:17:31;;;;;;;;;;;;;;;22.09;51.63;97373.53;4231146;28;5645;-66
2023/10/10 18:19:53;;;;;;;;;;;;;;;22.08;51.53;97375.41;4230287;28;5590;-67
2023/10/10 18:22:14;;;;;;;;;;;;;;;22.08;51.73;97369.19;4226305;28;5601;-66
2023/10/10 18:24:37;;;;;;;;;;;;;;;22.06;51.41;97366.75;4225981;28;5839;-66
2023/10/10 18:27:00;;;;;;;;;;;;;;;22.05;51.10;97375.84;4224447;28;5884;-68
2023/10/10 18:29:22;;;;;;;;;;;;;;;22.06;51.08;97371.31;4227536;28;5613;-74
2023/10/10 18:31:44;;;;;;;;;;;;;;;22.05;51.16;97369.66;4230551;28;5692;-65
2023/10/10 18:34:06;;;;;;;;;;;;;;;22.04;51.20;97366.16;4228770;28;5685;-67
2023/10/10 18:36:28;;;;;;;;;;;;;;;22.05;51.29;97364.28;4225701;28;5704;-71
2023/10/10 18:38:50;;;;;;;;;;;;;;;22.04;51.18;97368.03;4226518;28;5681;-73
2023/10/10 18:41:14;;;;;;;;;;;;;;;22.04;51.11;97379.63;4217795;27;5664;-63
2023/10/10 18:43:37;;;;;;;;;;;;;;;22.03;51.20;97374.50;4234001;27;5566;-64
2023/10/10 18:45:59;;;;;;;;;;;;;;;22.02;51.16;97376.38;4221582;28;5804;-65
2023/10/10 18:48:20;;;;;;;;;;;;;;;22.01;50.92;97363.16;4234228;27;5700;-62
2023/10/10 18:50:42;;;;;;;;;;;;;;;22.00;50.97;97370.44;4216330;27;5608;-63